Etusivu
METAR-TAF:

METAR-TAF

Lentoasemat :

Toussus-le-Noble, Ranska

Leveyspiiri: 48-46N, Pituuspiiri: 002-06E, korkeus merenpinnasta: 164 m

Tämänhetkinen sää

Tämä raportti tehtiin 30 minuuttia sitten, kello 21.00 UTC
Tuuli 3 kn idästä
Lämpötila 24°C
Kosteus 47%
Ilmanpaine 1017 hPa
Näkyvyys 10 km tai enemmän
ei pilviä alle 1500 m:ssä eikä cumulonimbus-pilviä

METAR: LFPN 072100Z AUTO 10003KT CAVOK 24/12 Q1017 NOSIG

Aika: 23:30 (21:30 UTC)

Sääennuste

Tämä raportti tehtiin 4 tuntia ja 30 minuuttia sitten, kello 17.00 UTC
Ennuste voimassa 07. päivästä klo 18 UTC - 08. päivään klo 03 UTC
Tuuli 4 kn idästä/kaakosta
Näkyvyys 10 km tai enemmän
ei pilviä alle 1500 m:ssä eikä cumulonimbus-pilviä

TAF: LFPN 071700Z 0718/0803 12004KT CAVOK

Säähavainnot ja -ennusteet yli 4000 lentoasemalta (METAR- ja TAF-raportit).

Käytössä olevat sääasemat on merkitty karttaan keltaisilla ja punaisilla pisteillä.

Aseta hiiri pisteen päälle nähdäksesi sääaseman nimen.

Klikkaa sitten nähdäksesi säähavainnot ja -ennusteet.

Kartan vaihtaminen: klikkaa mustalla rastilla varustettuja vihreitä pisteitä, niin voit zoomata sisään; viivalla varustettua vihreää pistettä, niin voit zoomata ulos tai vihreitä nuolia, niin pääset viereisille kartoille.


METAR-TAF: